createdAt,value
2023-05-02T03:58:44.747Z,32.00
2023-05-02T03:59:44.683Z,28.00
2023-05-02T04:00:44.682Z,28.00
2023-05-02T04:01:44.699Z,24.00
2023-05-02T04:02:44.771Z,20.00
2023-05-02T04:03:44.740Z,20.00
2023-05-02T04:04:44.771Z,16.00
2023-05-02T04:05:44.647Z,16.00
2023-05-02T04:06:44.645Z,16.00
2023-05-02T04:07:44.638Z,20.00
2023-05-02T04:08:44.635Z,24.00
2023-05-02T04:09:44.622Z,28.00
2023-05-02T04:10:44.621Z,28.00
2023-05-02T04:11:44.617Z,24.00
2023-05-02T04:12:44.617Z,20.00
2023-05-02T04:13:44.688Z,24.00
2023-05-02T04:14:44.626Z,28.00
2023-05-02T04:15:44.612Z,32.00
2023-05-02T04:16:44.607Z,36.00
2023-05-02T04:17:44.612Z,32.00
2023-05-02T04:18:44.599Z,40.00
2023-05-02T04:19:44.579Z,44.00
2023-05-02T04:20:44.571Z,48.00
2023-05-02T04:21:44.553Z,44.00
2023-05-02T04:22:44.597Z,40.00
2023-05-02T04:23:44.561Z,40.00
2023-05-02T04:24:44.583Z,40.00
2023-05-02T04:25:44.544Z,44.00
2023-05-02T04:26:44.544Z,44.00
2023-05-02T04:27:44.555Z,56.00
2023-05-02T04:28:44.541Z,64.00
2023-05-02T04:29:44.560Z,52.00
2023-05-02T04:30:44.567Z,48.00
2023-05-02T04:31:44.528Z,52.00
2023-05-02T04:32:44.554Z,48.00
2023-05-02T04:33:44.526Z,44.00
2023-05-02T04:34:44.527Z,40.00
2023-05-02T04:35:44.509Z,32.00
2023-05-02T04:36:44.502Z,32.00
2023-05-02T04:37:44.527Z,40.00
2023-05-02T04:38:44.533Z,36.00
2023-05-02T04:39:44.494Z,32.00
2023-05-02T04:40:44.495Z,20.00
2023-05-02T04:41:44.481Z,20.00
2023-05-02T04:42:44.502Z,20.00
2023-05-02T04:43:44.500Z,20.00
2023-05-02T04:44:44.492Z,24.00
2023-05-02T04:45:44.478Z,24.00
2023-05-02T04:46:44.591Z,28.00
2023-05-02T04:47:44.503Z,40.00
2023-05-02T04:48:44.458Z,48.00
2023-05-02T04:49:44.472Z,52.00
2023-05-02T04:50:44.460Z,60.00
2023-05-02T04:51:44.460Z,68.00
2023-05-02T04:52:44.467Z,68.00
2023-05-02T04:53:44.454Z,76.00
2023-05-02T04:54:44.464Z,84.00
2023-05-02T04:55:44.440Z,84.00
2023-05-02T04:56:44.465Z,92.00
2023-05-02T04:57:44.451Z,96.00
2023-05-02T04:58:44.436Z,88.00
2023-05-02T04:59:44.422Z,72.00
2023-05-02T05:00:44.437Z,64.00
2023-05-02T05:01:44.444Z,56.00
2023-05-02T05:02:44.708Z,52.00
2023-05-02T05:03:44.555Z,48.00
2023-05-02T05:04:44.407Z,44.00
2023-05-02T05:05:44.482Z,44.00
2023-05-02T05:06:44.483Z,52.00
2023-05-02T05:07:44.411Z,56.00
2023-05-02T05:08:44.406Z,68.00
2023-05-02T05:09:44.391Z,80.00
2023-05-02T05:10:44.395Z,88.00
2023-05-02T05:11:44.402Z,100.00
2023-05-02T05:12:44.392Z,132.00
2023-05-02T05:13:44.393Z,132.00
2023-05-02T05:14:44.368Z,128.00
2023-05-02T05:15:44.457Z,128.00
2023-05-02T05:16:44.476Z,120.00
2023-05-02T05:17:44.391Z,128.00
2023-05-02T05:18:44.391Z,136.00
2023-05-02T05:19:44.377Z,132.00
2023-05-02T05:20:44.351Z,128.00
2023-05-02T05:21:44.350Z,124.00
2023-05-02T05:22:44.347Z,152.00
2023-05-02T05:23:44.356Z,168.00
2023-05-02T05:24:44.348Z,184.00
2023-05-02T05:25:45.780Z,196.00
2023-05-02T05:26:44.336Z,192.00
2023-05-02T05:27:44.346Z,192.00
2023-05-02T05:28:44.325Z,188.00
2023-05-02T05:29:44.346Z,220.00
2023-05-02T05:30:44.313Z,236.00
2023-05-02T05:31:44.347Z,256.00
2023-05-02T05:32:44.370Z,252.00
2023-05-02T05:33:44.365Z,264.00
2023-05-02T05:34:44.356Z,296.00
2023-05-02T05:35:44.304Z,368.00
2023-05-02T05:36:44.301Z,440.00
2023-05-02T05:37:44.306Z,492.00
2023-05-02T05:38:44.311Z,532.00
2023-05-02T05:39:44.293Z,508.00
2023-05-02T05:40:44.284Z,472.00
2023-05-02T05:41:44.277Z,392.00
2023-05-02T05:42:44.274Z,356.00
2023-05-02T05:43:44.290Z,336.00
2023-05-02T05:44:44.304Z,392.00
2023-05-02T05:45:44.293Z,432.00
2023-05-02T05:46:44.313Z,452.00
2023-05-02T05:47:44.309Z,460.00
2023-05-02T05:48:44.321Z,472.00
2023-05-02T05:49:44.272Z,488.00
2023-05-02T05:50:44.269Z,488.00
2023-05-02T05:51:44.263Z,484.00
2023-05-02T05:52:44.259Z,528.00
2023-05-02T05:53:44.340Z,592.00
2023-05-02T05:54:44.519Z,636.00
2023-05-02T05:55:44.297Z,660.00
2023-05-02T05:56:44.258Z,672.00
2023-05-02T05:57:44.367Z,676.00
2023-05-02T05:58:44.302Z,700.00
2023-05-02T05:59:44.258Z,720.00
2023-05-02T06:00:44.271Z,712.00
2023-05-02T06:01:44.231Z,680.00
2023-05-02T06:02:44.317Z,684.00
2023-05-02T06:03:44.284Z,720.00
2023-05-02T06:04:44.288Z,760.00
2023-05-02T06:05:44.207Z,816.00
2023-05-02T06:06:45.043Z,832.00
2023-05-02T06:07:44.287Z,832.00
2023-05-02T06:08:44.304Z,820.00
2023-05-02T06:09:44.222Z,816.00
2023-05-02T06:10:44.201Z,808.00
2023-05-02T06:11:44.188Z,824.00
2023-05-02T06:12:44.284Z,804.00
2023-05-02T06:13:44.219Z,772.00
2023-05-02T06:14:44.286Z,768.00
2023-05-02T06:15:44.198Z,780.00
2023-05-02T06:16:44.284Z,788.00
2023-05-02T06:17:44.218Z,816.00
2023-05-02T06:18:44.205Z,840.00
2023-05-02T06:19:44.220Z,836.00
2023-05-02T06:20:44.149Z,808.00
2023-05-02T06:21:44.223Z,852.00
2023-05-02T06:22:44.203Z,948.00
2023-05-02T06:23:44.191Z,1048.00
2023-05-02T06:24:44.168Z,1100.00
2023-05-02T06:25:44.139Z,1136.00
2023-05-02T06:26:44.143Z,1152.00
2023-05-02T06:27:44.209Z,1176.00
2023-05-02T06:28:44.119Z,1236.00
2023-05-02T06:29:44.123Z,1296.00
2023-05-02T06:30:44.125Z,1340.00
2023-05-02T06:31:44.220Z,1348.00
2023-05-02T06:32:44.284Z,1380.00
2023-05-02T06:33:44.107Z,1408.00
2023-05-02T06:34:44.150Z,1404.00
2023-05-02T06:35:44.142Z,1408.00
2023-05-02T06:36:44.128Z,1420.00
2023-05-02T06:37:44.136Z,1344.00
2023-05-02T06:38:44.103Z,1332.00
2023-05-02T06:39:44.113Z,1332.00
2023-05-02T06:40:44.089Z,1308.00
2023-05-02T06:41:44.208Z,1180.00
2023-05-02T06:44:16.638Z,1252.00
2023-05-02T06:45:16.620Z,1380.00
2023-05-02T06:46:16.652Z,1464.00
2023-05-02T06:47:16.669Z,1448.00
2023-05-02T06:48:16.647Z,1324.00
2023-05-02T06:49:16.622Z,1276.00
2023-05-02T06:50:16.607Z,1328.00
2023-05-02T06:51:16.594Z,1360.00
2023-05-02T06:52:16.583Z,1312.00
2023-05-02T06:53:16.604Z,1316.00
2023-05-02T06:54:16.679Z,1320.00
2023-05-02T06:55:16.588Z,1328.00
2023-05-02T06:56:16.582Z,1276.00
2023-05-02T06:57:16.580Z,1184.00
2023-05-02T06:58:16.610Z,1136.00
2023-05-02T06:59:16.579Z,1112.00
2023-05-02T07:00:16.582Z,1056.00
2023-05-02T07:01:16.648Z,1028.00
2023-05-02T07:02:16.589Z,1000.00
2023-05-02T07:03:16.557Z,1000.00
2023-05-02T07:04:16.584Z,972.00
2023-05-02T07:05:16.571Z,956.00
2023-05-02T07:06:16.670Z,924.00
2023-05-02T07:07:16.552Z,888.00
2023-05-02T07:08:16.543Z,884.00
2023-05-02T07:09:16.572Z,884.00
2023-05-02T07:10:16.602Z,884.00
2023-05-02T07:11:16.550Z,868.00
2023-05-02T07:12:16.556Z,888.00
2023-05-02T07:13:16.538Z,1060.00
2023-05-02T07:14:16.528Z,1236.00
2023-05-02T07:15:16.544Z,1304.00
2023-05-02T07:16:16.532Z,1220.00
2023-05-02T07:17:16.528Z,1024.00
2023-05-02T07:18:16.608Z,904.00
2023-05-02T07:19:16.518Z,856.00
2023-05-02T07:20:16.524Z,848.00
2023-05-02T07:21:16.518Z,908.00
2023-05-02T07:22:16.495Z,1128.00
2023-05-02T07:23:16.535Z,1208.00
2023-05-02T07:24:16.571Z,1140.00
2023-05-02T07:25:16.518Z,1196.00
2023-05-02T07:26:16.520Z,1188.00
2023-05-02T07:27:16.506Z,1212.00
2023-05-02T07:28:16.549Z,1304.00
2023-05-02T07:29:16.574Z,1316.00
2023-05-02T07:30:17.630Z,1252.00
2023-05-02T07:31:18.835Z,1212.00
2023-05-02T07:32:16.553Z,1192.00
2023-05-02T07:33:16.687Z,1236.00
2023-05-02T07:34:16.477Z,1276.00
2023-05-02T07:35:16.470Z,1264.00
2023-05-02T07:36:16.742Z,1348.00
2023-05-02T07:37:16.472Z,1488.00
2023-05-02T07:38:16.595Z,1668.00
2023-05-02T07:39:16.524Z,2056.00
2023-05-02T07:40:16.516Z,2460.00
2023-05-02T07:41:16.469Z,2668.00
2023-05-02T07:42:16.573Z,2716.00
2023-05-02T07:43:16.448Z,2568.00
2023-05-02T07:44:16.471Z,2420.00
2023-05-02T07:45:16.491Z,2336.00
2023-05-02T07:46:16.532Z,2212.00
2023-05-02T07:47:16.434Z,2076.00
2023-05-02T07:48:16.550Z,1976.00
2023-05-02T07:49:16.534Z,1900.00
2023-05-02T07:50:16.434Z,1852.00
2023-05-02T07:51:16.528Z,1796.00
2023-05-02T07:52:16.437Z,1952.00
2023-05-02T07:53:16.564Z,2308.00
2023-05-02T07:54:16.454Z,2652.00
2023-05-02T07:55:16.451Z,2876.00
2023-05-02T07:56:16.573Z,2828.00
2023-05-02T07:57:16.456Z,2748.00
2023-05-02T07:58:16.449Z,2664.00
2023-05-02T07:59:17.309Z,2648.00
2023-05-02T08:00:16.415Z,2588.00
2023-05-02T08:01:16.427Z,2676.00
2023-05-02T08:02:16.494Z,2688.00
2023-05-02T08:03:16.632Z,2368.00
2023-05-02T08:04:16.746Z,2272.00
2023-05-02T08:05:16.577Z,2420.00
2023-05-02T08:06:16.418Z,2288.00
2023-05-02T08:07:16.390Z,2348.00
2023-05-02T08:08:16.425Z,2340.00
2023-05-02T08:09:16.378Z,2420.00
2023-05-02T08:10:16.477Z,2444.00
2023-05-02T08:11:16.421Z,2464.00
2023-05-02T08:12:16.379Z,2352.00
2023-05-02T08:13:16.384Z,2184.00
2023-05-02T08:14:16.437Z,2120.00
2023-05-02T08:15:16.399Z,1952.00
2023-05-02T08:16:16.382Z,1916.00
2023-05-02T08:17:16.371Z,2112.00
2023-05-02T08:18:16.456Z,2300.00
2023-05-02T08:19:16.394Z,2336.00
2023-05-02T08:20:16.353Z,2368.00
2023-05-02T08:21:16.388Z,2336.00
2023-05-02T08:22:16.372Z,2336.00
2023-05-02T08:23:16.346Z,2448.00
2023-05-02T08:24:16.458Z,2492.00
2023-05-02T08:25:16.357Z,2488.00
2023-05-02T08:26:16.348Z,2472.00
2023-05-02T08:27:16.360Z,2572.00
2023-05-02T08:28:16.448Z,2684.00
2023-05-02T08:29:16.358Z,2700.00
2023-05-02T08:30:16.360Z,2720.00
2023-05-02T08:31:16.375Z,2820.00
2023-05-02T08:32:16.584Z,3048.00
2023-05-02T08:33:16.466Z,3140.00
2023-05-02T08:34:16.365Z,2968.00
2023-05-02T08:35:16.330Z,2564.00
2023-05-02T08:36:16.374Z,2168.00
2023-05-02T08:37:16.425Z,1916.00
2023-05-02T08:38:16.340Z,1828.00
2023-05-02T08:39:16.320Z,1816.00
2023-05-02T08:40:22.116Z,1760.00
2023-05-02T08:41:16.323Z,1660.00
2023-05-02T08:42:16.361Z,1584.00
2023-05-02T08:43:16.362Z,1596.00
2023-05-02T08:44:16.394Z,1548.00
2023-05-02T08:45:16.832Z,1504.00
2023-05-02T08:46:16.523Z,1520.00
2023-05-02T08:47:16.358Z,1588.00
2023-05-02T08:48:16.354Z,1700.00
2023-05-02T08:49:16.316Z,1764.00
2023-05-02T08:50:16.320Z,1808.00
2023-05-02T08:51:16.329Z,1864.00
2023-05-02T08:52:16.300Z,1916.00
2023-05-02T08:53:16.288Z,1996.00
2023-05-02T08:54:16.278Z,2072.00
2023-05-02T08:55:16.314Z,2108.00
2023-05-02T08:56:16.294Z,2084.00
2023-05-02T08:57:16.296Z,2064.00
2023-05-02T08:58:17.622Z,2116.00
2023-05-02T08:59:16.325Z,2316.00
2023-05-02T09:00:16.419Z,2624.00
2023-05-02T09:01:16.425Z,2944.00
2023-05-02T09:02:16.332Z,3168.00
2023-05-02T09:03:16.290Z,3312.00
2023-05-02T09:04:16.353Z,3456.00
2023-05-02T09:05:16.280Z,3552.00
2023-05-02T09:06:16.327Z,3512.00
2023-05-02T09:07:16.263Z,3640.00
2023-05-02T09:08:16.291Z,3872.00
2023-05-02T09:09:18.438Z,4056.00
2023-05-02T09:10:16.321Z,4564.00
2023-05-02T09:11:16.272Z,4304.00
2023-05-02T09:12:16.357Z,4328.00
2023-05-02T09:16:48.890Z,3528.00
2023-05-02T09:17:48.878Z,3444.00
2023-05-02T09:18:48.915Z,3428.00
2023-05-02T09:20:48.845Z,3152.00
2023-05-02T09:21:48.790Z,3012.00
2023-05-02T09:22:48.792Z,2820.00
2023-05-02T09:23:48.934Z,2748.00
2023-05-02T09:24:48.812Z,2756.00
2023-05-02T09:25:48.765Z,2772.00
2023-05-02T09:26:48.905Z,2928.00
2023-05-02T09:27:48.844Z,3312.00
2023-05-02T09:28:48.814Z,3688.00
2023-05-02T09:29:48.812Z,3836.00
2023-05-02T09:30:48.892Z,3988.00
2023-05-02T09:31:55.466Z,4072.00
2023-05-02T09:32:48.792Z,4028.00
2023-05-02T09:33:48.802Z,3868.00
2023-05-02T09:34:48.767Z,3596.00
2023-05-02T09:35:48.813Z,3464.00
2023-05-02T09:36:48.772Z,3428.00
2023-05-02T09:37:48.767Z,3348.00
2023-05-02T09:38:48.756Z,3312.00
2023-05-02T09:39:48.762Z,3468.00
2023-05-02T09:40:48.784Z,3548.00
2023-05-02T09:41:48.777Z,3372.00
2023-05-02T09:42:48.768Z,3144.00
2023-05-02T09:43:48.741Z,3024.00
2023-05-02T09:44:48.767Z,2944.00
2023-05-02T09:45:48.776Z,2860.00
2023-05-02T09:46:49.593Z,2788.00
2023-05-02T09:47:49.719Z,2792.00
2023-05-02T09:48:48.765Z,2900.00
2023-05-02T09:49:48.797Z,3064.00
2023-05-02T09:50:48.796Z,3176.00
2023-05-02T09:51:48.798Z,3268.00
2023-05-02T09:52:48.741Z,3388.00
2023-05-02T09:53:48.761Z,3516.00
2023-05-02T09:54:48.766Z,3576.00
2023-05-02T09:55:48.749Z,3584.00
2023-05-02T09:56:48.727Z,3600.00
2023-05-02T09:57:48.784Z,3544.00
2023-05-02T09:58:48.723Z,3472.00
2023-05-02T09:59:48.775Z,3384.00
2023-05-02T10:00:48.733Z,3376.00
2023-05-02T10:01:48.786Z,3388.00
2023-05-02T10:13:08.960Z,4472.00
2023-05-02T10:14:08.940Z,4596.00
2023-05-02T10:15:08.897Z,4752.00
2023-05-02T10:16:08.894Z,4892.00
2023-05-02T10:17:08.873Z,4976.00
2023-05-02T10:18:08.921Z,5020.00
2023-05-02T10:19:08.925Z,4972.00
2023-05-02T10:20:08.885Z,4980.00
2023-05-02T10:21:08.850Z,4964.00
2023-05-02T10:22:08.880Z,4956.00
2023-05-02T10:23:08.912Z,4992.00
2023-05-02T10:24:08.953Z,5100.00
2023-05-02T10:25:08.866Z,5976.00
2023-05-02T10:26:08.861Z,4976.00
2023-05-02T10:27:08.975Z,4892.00
2023-05-02T10:28:08.897Z,4880.00
2023-05-02T10:29:09.014Z,4900.00
2023-05-02T10:30:08.950Z,4856.00
2023-05-02T10:31:08.935Z,4784.00
2023-05-02T10:32:08.896Z,5680.00
2023-05-02T10:33:08.940Z,6296.00
2023-05-02T10:34:08.879Z,6096.00
2023-05-02T10:35:08.860Z,5888.00
2023-05-02T10:36:08.992Z,5796.00
2023-05-02T10:38:08.901Z,6060.00
2023-05-02T10:39:08.918Z,6388.00
2023-05-02T10:40:08.827Z,6732.00
2023-05-02T10:41:08.895Z,6656.00
2023-05-02T10:42:08.871Z,5888.00
2023-05-02T10:43:08.877Z,5492.00
2023-05-02T10:44:08.885Z,5628.00
2023-05-02T10:45:08.841Z,5352.00
2023-05-02T10:46:08.831Z,5368.00
2023-05-02T10:47:08.865Z,5404.00
2023-05-02T10:48:08.893Z,5408.00
2023-05-02T10:49:08.829Z,5444.00
2023-05-02T10:50:08.816Z,6264.00
2023-05-02T10:51:08.889Z,5624.00
2023-05-02T10:52:08.847Z,5624.00
2023-05-02T10:53:08.878Z,5804.00
2023-05-02T10:54:08.863Z,5684.00
2023-05-02T10:55:08.847Z,5584.00
2023-05-02T10:56:08.845Z,5604.00
2023-05-02T10:57:08.842Z,5540.00
2023-05-02T10:58:08.852Z,5348.00
2023-05-02T10:59:08.821Z,5120.00
2023-05-02T11:00:08.875Z,4940.00
2023-05-02T11:01:08.941Z,4836.00
2023-05-02T11:02:08.897Z,4768.00
2023-05-02T11:03:09.025Z,4792.00
2023-05-02T11:04:09.179Z,4776.00
2023-05-02T11:05:08.843Z,4888.00
2023-05-02T11:06:08.964Z,5116.00
2023-05-02T11:07:08.846Z,5360.00
2023-05-02T11:08:08.929Z,5568.00
2023-05-02T11:09:08.874Z,5600.00
2023-05-02T11:10:08.991Z,5476.00
2023-05-02T11:11:08.946Z,5488.00
2023-05-02T11:12:08.966Z,7080.00
2023-05-02T11:13:08.833Z,4372.00
2023-05-02T11:14:08.862Z,4272.00
2023-05-02T11:15:08.897Z,5316.00
2023-05-02T11:16:09.031Z,7404.00
2023-05-02T11:17:09.530Z,5684.00
2023-05-02T11:18:09.564Z,5652.00
2023-05-02T11:19:09.100Z,5900.00
2023-05-02T11:20:08.908Z,6088.00
2023-05-02T11:21:08.824Z,6176.00
2023-05-02T11:22:08.836Z,6320.00
2023-05-02T11:23:09.221Z,6576.00
2023-05-02T11:24:08.932Z,6360.00
2023-05-02T11:25:08.906Z,6252.00
2023-05-02T11:26:08.925Z,6020.00
2023-05-02T11:27:08.950Z,5812.00
2023-05-02T11:28:08.920Z,5684.00
2023-05-02T11:29:11.660Z,5544.00
2023-05-02T11:30:08.899Z,5396.00
2023-05-02T11:31:08.852Z,5164.00
2023-05-02T11:32:09.534Z,4836.00
2023-05-02T11:33:08.932Z,4600.00
2023-05-02T11:34:09.098Z,4524.00
2023-05-02T11:35:08.832Z,4508.00
2023-05-02T11:36:09.254Z,4360.00
2023-05-02T11:37:08.894Z,4088.00
2023-05-02T11:38:08.852Z,3860.00
2023-05-02T11:39:08.930Z,3728.00
2023-05-02T11:40:08.951Z,3636.00
2023-05-02T11:41:08.944Z,3584.00
2023-05-02T11:42:08.872Z,3564.00
2023-05-02T11:43:09.225Z,3596.00
2023-05-02T11:44:08.971Z,3600.00
2023-05-02T11:45:08.828Z,3560.00
2023-05-02T11:46:08.897Z,3528.00
2023-05-02T11:47:08.906Z,3320.00
2023-05-02T11:48:08.963Z,3128.00
2023-05-02T11:49:10.145Z,3008.00
2023-05-02T11:50:08.884Z,2976.00
2023-05-02T11:51:08.899Z,2952.00
2023-05-02T11:52:08.834Z,2984.00
2023-05-02T11:53:08.872Z,3100.00
2023-05-02T11:54:08.939Z,3180.00
2023-05-02T11:55:09.707Z,3140.00
2023-05-02T11:56:09.336Z,3016.00
2023-05-02T11:57:09.058Z,2912.00
2023-05-02T11:58:08.886Z,2836.00
2023-05-02T11:59:08.836Z,2772.00
2023-05-02T12:00:08.970Z,2752.00
2023-05-02T12:01:09.543Z,2800.00
2023-05-02T12:02:08.926Z,2892.00
2023-05-02T12:03:08.986Z,2992.00
2023-05-02T12:04:08.896Z,3080.00
2023-05-02T12:05:08.923Z,3180.00
2023-05-02T12:06:08.950Z,3276.00
2023-05-02T12:07:10.216Z,3312.00
2023-05-02T12:08:08.894Z,3312.00
2023-05-02T12:09:08.877Z,3344.00
2023-05-02T12:10:09.751Z,3404.00
2023-05-02T12:11:08.859Z,3428.00
2023-05-02T12:12:08.832Z,3376.00
2023-05-02T12:13:10.111Z,3300.00
2023-05-02T12:14:08.879Z,3232.00
2023-05-02T12:15:08.893Z,3236.00
2023-05-02T12:16:09.000Z,3332.00
2023-05-02T12:17:09.085Z,3480.00
2023-05-02T12:18:08.860Z,3676.00
2023-05-02T12:19:08.929Z,3936.00
2023-05-02T12:20:08.881Z,4184.00
2023-05-02T12:21:08.843Z,4360.00
2023-05-02T12:22:08.910Z,4436.00
2023-05-02T12:23:08.833Z,4460.00
2023-05-02T12:24:08.871Z,4460.00
2023-05-02T12:25:08.964Z,4408.00
2023-05-02T12:26:09.762Z,4216.00
2023-05-02T12:27:08.890Z,3868.00
2023-05-02T12:28:08.844Z,3620.00
2023-05-02T12:29:08.893Z,3576.00
2023-05-02T12:30:08.836Z,3652.00
2023-05-02T12:31:08.888Z,3760.00
2023-05-02T12:32:08.825Z,3764.00
2023-05-02T12:33:08.928Z,3780.00
2023-05-02T12:34:08.857Z,3796.00
2023-05-02T12:35:08.890Z,3872.00
2023-05-02T12:36:08.869Z,3976.00
2023-05-02T12:37:08.898Z,4152.00
2023-05-02T12:38:08.808Z,4556.00
2023-05-02T12:39:08.848Z,5048.00
2023-05-02T12:40:08.874Z,5488.00
2023-05-02T12:41:08.809Z,5824.00
2023-05-02T12:42:08.915Z,5568.00
2023-05-02T12:43:08.872Z,5292.00
2023-05-02T12:44:08.841Z,4820.00
2023-05-02T12:45:08.807Z,4428.00
2023-05-02T12:46:08.834Z,4096.00
2023-05-02T12:47:08.895Z,3692.00
2023-05-02T12:48:08.854Z,3300.00
2023-05-02T12:49:08.819Z,3080.00
2023-05-02T12:50:09.063Z,2984.00
2023-05-02T12:52:41.508Z,3260.00
2023-05-02T12:53:41.339Z,3416.00
2023-05-02T12:56:02.557Z,3556.00
2023-05-02T12:56:41.385Z,3604.00
2023-05-02T12:57:41.350Z,3556.00
2023-05-02T12:58:41.351Z,3440.00
2023-05-02T12:59:41.355Z,3408.00
2023-05-02T13:00:41.402Z,3496.00
2023-05-02T13:01:41.591Z,3612.00
2023-05-02T13:02:41.427Z,3760.00
2023-05-02T13:03:41.406Z,3660.00
2023-05-02T13:04:41.501Z,3748.00
2023-05-02T13:05:41.346Z,3928.00
2023-05-02T13:06:41.398Z,3884.00
2023-05-02T13:07:41.362Z,3848.00
2023-05-02T13:08:41.365Z,3792.00
2023-05-02T13:09:41.380Z,3784.00
2023-05-02T13:10:41.321Z,3864.00
2023-05-02T13:11:41.326Z,3960.00
2023-05-02T13:12:41.351Z,4088.00
2023-05-02T13:13:41.318Z,4304.00
2023-05-02T13:14:41.417Z,4460.00
2023-05-02T13:15:41.329Z,4736.00
2023-05-02T13:16:41.384Z,5308.00
2023-05-02T13:17:41.602Z,6304.00
2023-05-02T13:18:41.419Z,7560.00
2023-05-02T13:19:50.453Z,8084.00
2023-05-02T13:20:41.338Z,7904.00
2023-05-02T13:21:41.316Z,7968.00
2023-05-02T13:22:41.429Z,11232.00
2023-05-02T13:23:41.363Z,8132.00
2023-05-02T13:24:41.358Z,8736.00
2023-05-02T13:25:41.371Z,10536.00
2023-05-02T13:26:41.345Z,11480.00
2023-05-02T13:27:41.397Z,13920.00
2023-05-02T13:28:41.314Z,14468.00
2023-05-02T13:29:41.330Z,9408.00
2023-05-02T13:30:41.370Z,13736.00
2023-05-02T13:31:41.322Z,7624.00
2023-05-02T13:32:41.450Z,5208.00
2023-05-02T13:33:41.312Z,4220.00
2023-05-02T13:34:41.348Z,3660.00
2023-05-02T13:35:41.310Z,3440.00
2023-05-02T13:36:41.323Z,3296.00
2023-05-02T13:37:41.349Z,3352.00
2023-05-02T13:38:41.320Z,3560.00
2023-05-02T13:39:41.357Z,3920.00
2023-05-02T13:40:41.343Z,4148.00
2023-05-02T13:41:41.318Z,4304.00
2023-05-02T13:42:41.376Z,4292.00
2023-05-02T13:43:41.465Z,4220.00
2023-05-02T13:44:42.288Z,4252.00
2023-05-02T13:45:41.993Z,4596.00
2023-05-02T13:46:43.779Z,10036.00
2023-05-02T13:47:41.819Z,4324.00
2023-05-02T13:48:41.395Z,4340.00
2023-05-02T13:49:41.387Z,4568.00
2023-05-02T13:50:41.349Z,4888.00
2023-05-02T13:51:41.296Z,5388.00
2023-05-02T13:52:41.353Z,4672.00
2023-05-02T13:53:41.323Z,4188.00
2023-05-02T13:54:41.315Z,3988.00
2023-05-02T13:55:41.325Z,3924.00
2023-05-02T13:56:41.329Z,3892.00
2023-05-02T13:57:41.297Z,3792.00
2023-05-02T13:58:41.296Z,3736.00
2023-05-02T13:59:41.293Z,3912.00
2023-05-02T14:00:41.295Z,4224.00
2023-05-02T14:01:41.405Z,4600.00
2023-05-02T14:02:41.398Z,5052.00
2023-05-02T14:03:41.372Z,6292.00
2023-05-02T14:04:41.339Z,4384.00
2023-05-02T14:05:41.284Z,3976.00
2023-05-02T14:06:41.326Z,3740.00
2023-05-02T14:07:41.304Z,3516.00
2023-05-02T14:08:41.307Z,3336.00
2023-05-02T14:09:41.295Z,3440.00
2023-05-02T14:10:41.294Z,3620.00
2023-05-02T14:11:41.298Z,3712.00
2023-05-02T14:12:41.327Z,3596.00
2023-05-02T14:13:41.303Z,3448.00
2023-05-02T14:14:41.279Z,3276.00
2023-05-02T14:15:41.324Z,3136.00
2023-05-02T14:16:41.354Z,3080.00
2023-05-02T14:17:41.328Z,3044.00
2023-05-02T14:18:41.303Z,2964.00
2023-05-02T14:19:41.279Z,2888.00
2023-05-02T14:20:41.274Z,2816.00
2023-05-02T14:21:41.282Z,2760.00
2023-05-02T14:22:41.278Z,2732.00
2023-05-02T14:23:41.301Z,2776.00
2023-05-02T14:24:41.268Z,2900.00
2023-05-02T14:25:41.287Z,3000.00
2023-05-02T14:26:41.273Z,3084.00
2023-05-02T14:27:41.268Z,3204.00
2023-05-02T14:28:41.281Z,3396.00
2023-05-02T14:29:41.285Z,3620.00
2023-05-02T14:30:41.274Z,3904.00
2023-05-02T14:31:41.380Z,4372.00
2023-05-02T14:32:41.310Z,5148.00
2023-05-02T14:33:41.281Z,7152.00
2023-05-02T14:34:41.272Z,4356.00
2023-05-02T14:35:41.262Z,3660.00
2023-05-02T14:36:41.266Z,3352.00
2023-05-02T14:37:41.268Z,3152.00
2023-05-02T14:38:41.255Z,3020.00
2023-05-02T14:39:41.276Z,2908.00
2023-05-02T14:40:41.259Z,2764.00
2023-05-02T14:41:41.267Z,2748.00
2023-05-02T14:42:41.251Z,2776.00
2023-05-02T14:43:41.266Z,2860.00
2023-05-02T14:44:41.271Z,2992.00
2023-05-02T14:45:41.286Z,3052.00
2023-05-02T14:46:41.354Z,2996.00
2023-05-02T14:47:41.297Z,3044.00
2023-05-02T14:48:41.248Z,3208.00
2023-05-02T14:49:41.252Z,3340.00
2023-05-02T14:50:41.253Z,3540.00
2023-05-02T14:51:41.264Z,3792.00
2023-05-02T14:52:41.236Z,4116.00
2023-05-02T14:53:41.257Z,4564.00
2023-05-02T14:54:41.245Z,5276.00
2023-05-02T14:55:41.289Z,9960.00
2023-05-02T14:56:41.249Z,4608.00
2023-05-02T14:57:41.271Z,4428.00
2023-05-02T14:58:41.269Z,4312.00
2023-05-02T14:59:41.239Z,4220.00
2023-05-02T15:00:41.428Z,4264.00
2023-05-02T15:01:41.266Z,4416.00
2023-05-02T15:02:41.386Z,5048.00
2023-05-02T15:03:56.703Z,9464.00
2023-05-02T15:04:41.265Z,6680.00
2023-05-02T15:05:41.263Z,14580.00
2023-05-02T15:06:41.298Z,11576.00
2023-05-02T15:07:41.227Z,10144.00
2023-05-02T15:08:41.223Z,11400.00
2023-05-02T15:09:41.241Z,7404.00
2023-05-02T15:10:41.236Z,4632.00
2023-05-02T15:11:41.233Z,3744.00
2023-05-02T15:12:41.229Z,3128.00
2023-05-02T15:13:41.225Z,2692.00
2023-05-02T15:14:41.220Z,2500.00
2023-05-02T15:15:41.230Z,2432.00
2023-05-02T15:16:41.302Z,2404.00
2023-05-02T15:17:41.225Z,2416.00
2023-05-02T15:18:41.228Z,2476.00
2023-05-02T15:19:41.216Z,2500.00
2023-05-02T15:20:41.229Z,2580.00
2023-05-02T15:21:41.210Z,2736.00
2023-05-02T15:22:41.230Z,2908.00
2023-05-02T15:23:41.236Z,2900.00
2023-05-02T15:27:13.725Z,2984.00
2023-05-02T15:28:13.711Z,2972.00
2023-05-02T15:29:13.713Z,2928.00
2023-05-02T15:30:14.295Z,2968.00
2023-05-02T15:31:13.723Z,3024.00
2023-05-02T15:32:13.866Z,3120.00
2023-05-02T15:33:13.706Z,3260.00
2023-05-02T15:34:13.712Z,3412.00
2023-05-02T15:35:13.716Z,3608.00
2023-05-02T15:36:13.718Z,3780.00
2023-05-02T15:37:13.690Z,5744.00
2023-05-02T15:38:13.696Z,4444.00
2023-05-02T15:39:13.701Z,4236.00
2023-05-02T15:40:13.712Z,3896.00
2023-05-02T15:41:13.724Z,3548.00
2023-05-02T15:42:13.693Z,3108.00
2023-05-02T15:43:13.724Z,2696.00
2023-05-02T15:44:13.711Z,2404.00
2023-05-02T15:45:13.732Z,2200.00
2023-05-02T15:46:13.736Z,2056.00
2023-05-02T15:47:13.702Z,1944.00
2023-05-02T15:48:13.727Z,1860.00
2023-05-02T15:49:13.706Z,1808.00
2023-05-02T15:50:13.680Z,1772.00
2023-05-02T15:51:13.697Z,1796.00
2023-05-02T15:52:13.673Z,1804.00
2023-05-02T15:53:13.678Z,1808.00
2023-05-02T15:54:13.691Z,1808.00
2023-05-02T15:55:13.692Z,1768.00
2023-05-02T15:56:13.690Z,1716.00
2023-05-02T15:57:13.715Z,1636.00
2023-05-02T15:58:13.714Z,1568.00
2023-05-02T15:59:13.717Z,1500.00
2023-05-02T16:00:13.657Z,1428.00
2023-05-02T16:12:16.430Z,1108.00
2023-05-02T16:13:16.400Z,1056.00
2023-05-02T16:14:16.395Z,1032.00
2023-05-02T16:15:16.386Z,1040.00
2023-05-02T16:16:16.403Z,1052.00
2023-05-02T16:17:16.393Z,1088.00
2023-05-02T16:18:16.559Z,1140.00
2023-05-02T16:19:16.375Z,1208.00
2023-05-02T16:20:16.369Z,1316.00
2023-05-02T16:21:16.351Z,1432.00
2023-05-02T16:22:16.366Z,1472.00
2023-05-02T16:23:16.366Z,1420.00
2023-05-02T16:24:16.351Z,1352.00
2023-05-02T16:25:16.354Z,1300.00
2023-05-02T16:26:16.342Z,1268.00
2023-05-02T16:27:16.344Z,1236.00
2023-05-02T16:28:16.414Z,1248.00
2023-05-02T16:29:16.346Z,1328.00
2023-05-02T16:30:16.388Z,1448.00
2023-05-02T16:31:16.363Z,1500.00
2023-05-02T16:32:16.328Z,1472.00
2023-05-02T16:33:16.342Z,1636.00
2023-05-02T16:34:16.331Z,1768.00
2023-05-02T16:35:16.324Z,1948.00
2023-05-02T16:36:16.315Z,2160.00
2023-05-02T16:37:16.313Z,2296.00
2023-05-02T16:38:16.329Z,2500.00
2023-05-02T16:39:16.338Z,2608.00
2023-05-02T16:40:16.332Z,2760.00
2023-05-02T16:41:16.311Z,2936.00
2023-05-02T16:42:16.311Z,3064.00
2023-05-02T16:43:16.311Z,3160.00
2023-05-02T16:44:16.306Z,3152.00